sensor_id;sensor_type;location;lat;lon;timestamp;P1;durP1;ratioP1;P2;durP2;ratioP2
50213;SDS011;36103;54.176;12.070;2022-12-17T00:01:16;12.40;;;9.17;;
50213;SDS011;36103;54.176;12.070;2022-12-17T00:02:36;12.43;;;7.93;;
50213;SDS011;36103;54.176;12.070;2022-12-17T00:03:55;11.83;;;7.77;;
50213;SDS011;36103;54.176;12.070;2022-12-17T00:05:15;11.47;;;8.07;;
50213;SDS011;36103;54.176;12.070;2022-12-17T00:06:34;12.10;;;7.90;;
50213;SDS011;36103;54.176;12.070;2022-12-17T00:07:56;11.53;;;7.70;;
50213;SDS011;36103;54.176;12.070;2022-12-17T00:09:15;10.37;;;8.00;;
50213;SDS011;36103;54.176;12.070;2022-12-17T00:10:34;9.93;;;7.33;;
50213;SDS011;36103;54.176;12.070;2022-12-17T00:11:54;8.93;;;7.67;;
50213;SDS011;36103;54.176;12.070;2022-12-17T00:13:19;10.43;;;7.37;;
50213;SDS011;36103;54.176;12.070;2022-12-17T00:14:39;10.30;;;7.97;;
50213;SDS011;36103;54.176;12.070;2022-12-17T00:15:59;9.33;;;7.33;;
50213;SDS011;36103;54.176;12.070;2022-12-17T00:17:17;11.80;;;7.70;;
50213;SDS011;36103;54.176;12.070;2022-12-17T00:18:37;10.10;;;7.67;;
50213;SDS011;36103;54.176;12.070;2022-12-17T00:19:56;9.90;;;7.20;;
50213;SDS011;36103;54.176;12.070;2022-12-17T00:21:17;9.63;;;6.83;;
50213;SDS011;36103;54.176;12.070;2022-12-17T00:22:36;9.47;;;7.17;;
50213;SDS011;36103;54.176;12.070;2022-12-17T00:23:55;10.23;;;7.67;;
50213;SDS011;36103;54.176;12.070;2022-12-17T00:25:14;13.40;;;7.87;;
50213;SDS011;36103;54.176;12.070;2022-12-17T00:26:32;10.73;;;7.57;;
50213;SDS011;36103;54.176;12.070;2022-12-17T00:27:51;12.43;;;7.23;;
50213;SDS011;36103;54.176;12.070;2022-12-17T00:29:11;10.27;;;7.03;;
50213;SDS011;36103;54.176;12.070;2022-12-17T00:30:30;9.83;;;6.80;;
50213;SDS011;36103;54.176;12.070;2022-12-17T00:31:50;9.77;;;6.90;;
50213;SDS011;36103;54.176;12.070;2022-12-17T00:33:10;8.90;;;7.00;;
50213;SDS011;36103;54.176;12.070;2022-12-17T00:34:29;8.93;;;7.40;;
50213;SDS011;36103;54.176;12.070;2022-12-17T00:35:51;8.87;;;6.83;;
50213;SDS011;36103;54.176;12.070;2022-12-17T00:37:11;11.00;;;7.10;;
50213;SDS011;36103;54.176;12.070;2022-12-17T00:38:32;10.60;;;6.53;;
50213;SDS011;36103;54.176;12.070;2022-12-17T00:39:52;9.20;;;6.87;;
50213;SDS011;36103;54.176;12.070;2022-12-17T00:41:11;10.03;;;7.33;;
50213;SDS011;36103;54.176;12.070;2022-12-17T00:42:32;9.83;;;7.17;;
50213;SDS011;36103;54.176;12.070;2022-12-17T00:43:50;8.97;;;6.97;;
50213;SDS011;36103;54.176;12.070;2022-12-17T00:45:09;9.57;;;6.83;;
50213;SDS011;36103;54.176;12.070;2022-12-17T00:46:28;9.00;;;7.10;;
50213;SDS011;36103;54.176;12.070;2022-12-17T00:47:48;10.23;;;7.17;;
50213;SDS011;36103;54.176;12.070;2022-12-17T00:49:15;8.67;;;6.97;;
50213;SDS011;36103;54.176;12.070;2022-12-17T00:50:34;9.33;;;6.10;;
50213;SDS011;36103;54.176;12.070;2022-12-17T00:51:53;7.60;;;6.47;;
50213;SDS011;36103;54.176;12.070;2022-12-17T00:53:13;10.40;;;7.40;;
50213;SDS011;36103;54.176;12.070;2022-12-17T00:54:32;8.00;;;6.30;;
50213;SDS011;36103;54.176;12.070;2022-12-17T00:55:50;9.90;;;7.07;;
50213;SDS011;36103;54.176;12.070;2022-12-17T00:57:09;6.93;;;6.03;;
50213;SDS011;36103;54.176;12.070;2022-12-17T00:58:28;8.53;;;6.47;;
50213;SDS011;36103;54.176;12.070;2022-12-17T00:59:46;7.80;;;5.53;;
50213;SDS011;36103;54.176;12.070;2022-12-17T01:01:06;7.63;;;6.20;;
50213;SDS011;36103;54.176;12.070;2022-12-17T01:02:25;8.57;;;6.67;;
50213;SDS011;36103;54.176;12.070;2022-12-17T01:03:44;8.70;;;7.07;;
50213;SDS011;36103;54.176;12.070;2022-12-17T01:05:04;8.77;;;6.37;;
50213;SDS011;36103;54.176;12.070;2022-12-17T01:06:24;7.37;;;6.23;;
50213;SDS011;36103;54.176;12.070;2022-12-17T01:07:43;6.97;;;5.70;;
50213;SDS011;36103;54.176;12.070;2022-12-17T01:09:03;10.43;;;6.87;;
50213;SDS011;36103;54.176;12.070;2022-12-17T01:10:22;8.73;;;6.57;;
50213;SDS011;36103;54.176;12.070;2022-12-17T01:11:41;10.90;;;6.37;;
50213;SDS011;36103;54.176;12.070;2022-12-17T01:13:01;10.17;;;6.87;;
50213;SDS011;36103;54.176;12.070;2022-12-17T01:14:32;8.67;;;6.40;;
50213;SDS011;36103;54.176;12.070;2022-12-17T01:15:51;8.57;;;6.33;;
50213;SDS011;36103;54.176;12.070;2022-12-17T01:17:11;7.93;;;6.43;;
50213;SDS011;36103;54.176;12.070;2022-12-17T01:18:30;7.50;;;5.70;;
50213;SDS011;36103;54.176;12.070;2022-12-17T01:19:49;8.17;;;6.50;;
50213;SDS011;36103;54.176;12.070;2022-12-17T01:21:07;10.40;;;6.20;;
50213;SDS011;36103;54.176;12.070;2022-12-17T01:22:26;8.57;;;6.57;;
50213;SDS011;36103;54.176;12.070;2022-12-17T01:23:46;9.10;;;6.23;;
50213;SDS011;36103;54.176;12.070;2022-12-17T01:25:07;9.10;;;6.77;;
50213;SDS011;36103;54.176;12.070;2022-12-17T01:26:26;10.13;;;6.73;;
50213;SDS011;36103;54.176;12.070;2022-12-17T01:27:47;8.40;;;5.93;;
50213;SDS011;36103;54.176;12.070;2022-12-17T01:29:06;7.37;;;6.00;;
50213;SDS011;36103;54.176;12.070;2022-12-17T01:30:26;7.00;;;5.83;;
50213;SDS011;36103;54.176;12.070;2022-12-17T01:31:45;7.83;;;6.13;;
50213;SDS011;36103;54.176;12.070;2022-12-17T01:33:17;8.13;;;6.30;;
50213;SDS011;36103;54.176;12.070;2022-12-17T01:34:35;7.80;;;5.93;;
50213;SDS011;36103;54.176;12.070;2022-12-17T01:35:54;7.70;;;5.60;;
50213;SDS011;36103;54.176;12.070;2022-12-17T01:37:13;7.40;;;6.13;;
50213;SDS011;36103;54.176;12.070;2022-12-17T01:38:32;9.13;;;6.80;;
50213;SDS011;36103;54.176;12.070;2022-12-17T01:39:52;7.70;;;5.80;;
50213;SDS011;36103;54.176;12.070;2022-12-17T01:41:15;8.10;;;5.57;;
50213;SDS011;36103;54.176;12.070;2022-12-17T01:42:37;9.50;;;6.50;;
50213;SDS011;36103;54.176;12.070;2022-12-17T01:43:56;8.83;;;6.23;;
50213;SDS011;36103;54.176;12.070;2022-12-17T01:45:31;7.47;;;5.87;;
50213;SDS011;36103;54.176;12.070;2022-12-17T01:46:53;8.63;;;6.20;;
50213;SDS011;36103;54.176;12.070;2022-12-17T01:48:13;9.07;;;6.40;;
50213;SDS011;36103;54.176;12.070;2022-12-17T01:49:34;7.53;;;5.47;;
50213;SDS011;36103;54.176;12.070;2022-12-17T01:51:01;7.37;;;5.97;;
50213;SDS011;36103;54.176;12.070;2022-12-17T01:52:20;6.87;;;5.67;;
50213;SDS011;36103;54.176;12.070;2022-12-17T01:53:40;7.17;;;6.03;;
50213;SDS011;36103;54.176;12.070;2022-12-17T01:55:02;6.97;;;5.70;;
50213;SDS011;36103;54.176;12.070;2022-12-17T01:56:23;8.00;;;6.33;;
50213;SDS011;36103;54.176;12.070;2022-12-17T01:57:42;8.13;;;5.73;;
50213;SDS011;36103;54.176;12.070;2022-12-17T01:59:01;7.50;;;5.63;;
50213;SDS011;36103;54.176;12.070;2022-12-17T02:00:21;6.60;;;5.37;;
50213;SDS011;36103;54.176;12.070;2022-12-17T02:01:41;7.40;;;5.73;;
50213;SDS011;36103;54.176;12.070;2022-12-17T02:03:00;8.57;;;6.17;;
50213;SDS011;36103;54.176;12.070;2022-12-17T02:04:21;7.43;;;5.80;;
50213;SDS011;36103;54.176;12.070;2022-12-17T02:05:41;7.90;;;5.63;;
50213;SDS011;36103;54.176;12.070;2022-12-17T02:07:07;7.53;;;5.70;;
50213;SDS011;36103;54.176;12.070;2022-12-17T02:08:34;7.40;;;5.50;;
50213;SDS011;36103;54.176;12.070;2022-12-17T02:09:59;7.10;;;5.97;;
50213;SDS011;36103;54.176;12.070;2022-12-17T02:11:25;7.13;;;5.67;;
50213;SDS011;36103;54.176;12.070;2022-12-17T02:12:49;7.37;;;5.00;;
50213;SDS011;36103;54.176;12.070;2022-12-17T02:14:11;6.77;;;5.50;;
50213;SDS011;36103;54.176;12.070;2022-12-17T02:15:35;8.90;;;5.93;;
50213;SDS011;36103;54.176;12.070;2022-12-17T02:16:58;7.87;;;5.60;;
50213;SDS011;36103;54.176;12.070;2022-12-17T02:18:20;5.40;;;4.90;;
50213;SDS011;36103;54.176;12.070;2022-12-17T02:19:43;6.73;;;5.37;;
50213;SDS011;36103;54.176;12.070;2022-12-17T02:21:08;8.00;;;5.80;;
50213;SDS011;36103;54.176;12.070;2022-12-17T02:22:32;6.80;;;5.37;;
50213;SDS011;36103;54.176;12.070;2022-12-17T02:24:01;6.77;;;4.93;;
50213;SDS011;36103;54.176;12.070;2022-12-17T02:25:27;6.60;;;5.40;;
50213;SDS011;36103;54.176;12.070;2022-12-17T02:26:53;7.03;;;5.47;;
50213;SDS011;36103;54.176;12.070;2022-12-17T02:28:13;6.47;;;5.47;;
50213;SDS011;36103;54.176;12.070;2022-12-17T02:29:33;5.93;;;5.27;;
50213;SDS011;36103;54.176;12.070;2022-12-17T02:30:55;6.77;;;5.37;;
50213;SDS011;36103;54.176;12.070;2022-12-17T02:32:15;6.43;;;5.00;;
50213;SDS011;36103;54.176;12.070;2022-12-17T02:33:35;6.70;;;5.47;;
50213;SDS011;36103;54.176;12.070;2022-12-17T02:34:54;6.27;;;5.53;;
50213;SDS011;36103;54.176;12.070;2022-12-17T02:36:14;6.63;;;5.17;;
50213;SDS011;36103;54.176;12.070;2022-12-17T02:37:33;5.20;;;4.67;;
50213;SDS011;36103;54.176;12.070;2022-12-17T02:38:52;6.07;;;5.13;;
50213;SDS011;36103;54.176;12.070;2022-12-17T02:40:12;5.70;;;5.17;;
50213;SDS011;36103;54.176;12.070;2022-12-17T02:41:34;6.63;;;5.00;;
50213;SDS011;36103;54.176;12.070;2022-12-17T02:42:57;6.83;;;4.90;;
50213;SDS011;36103;54.176;12.070;2022-12-17T02:44:17;7.00;;;5.03;;
50213;SDS011;36103;54.176;12.070;2022-12-17T02:45:37;5.77;;;4.93;;
50213;SDS011;36103;54.176;12.070;2022-12-17T02:46:58;6.43;;;5.20;;
50213;SDS011;36103;54.176;12.070;2022-12-17T02:48:18;6.30;;;4.83;;
50213;SDS011;36103;54.176;12.070;2022-12-17T02:49:37;7.27;;;4.93;;
50213;SDS011;36103;54.176;12.070;2022-12-17T02:50:56;5.37;;;4.67;;
50213;SDS011;36103;54.176;12.070;2022-12-17T02:52:16;6.27;;;4.57;;
50213;SDS011;36103;54.176;12.070;2022-12-17T02:53:40;5.63;;;4.80;;
50213;SDS011;36103;54.176;12.070;2022-12-17T02:55:00;5.67;;;4.77;;
50213;SDS011;36103;54.176;12.070;2022-12-17T02:56:21;5.33;;;4.80;;
50213;SDS011;36103;54.176;12.070;2022-12-17T02:57:40;5.27;;;4.77;;
50213;SDS011;36103;54.176;12.070;2022-12-17T02:59:01;6.13;;;5.13;;
50213;SDS011;36103;54.176;12.070;2022-12-17T03:00:21;4.83;;;4.07;;
50213;SDS011;36103;54.176;12.070;2022-12-17T03:01:41;5.87;;;4.93;;
50213;SDS011;36103;54.176;12.070;2022-12-17T03:03:03;6.20;;;5.03;;
50213;SDS011;36103;54.176;12.070;2022-12-17T03:04:23;5.50;;;4.50;;
50213;SDS011;36103;54.176;12.070;2022-12-17T03:05:42;6.33;;;5.13;;
50213;SDS011;36103;54.176;12.070;2022-12-17T03:06:57;6.07;;;4.77;;
50213;SDS011;36103;54.176;12.070;2022-12-17T03:08:17;6.27;;;5.03;;
50213;SDS011;36103;54.176;12.070;2022-12-17T03:09:36;5.53;;;4.77;;
50213;SDS011;36103;54.176;12.070;2022-12-17T03:10:57;6.63;;;4.87;;
50213;SDS011;36103;54.176;12.070;2022-12-17T03:12:16;5.57;;;4.57;;
50213;SDS011;36103;54.176;12.070;2022-12-17T03:13:35;4.70;;;4.27;;
50213;SDS011;36103;54.176;12.070;2022-12-17T03:14:55;5.90;;;4.73;;
50213;SDS011;36103;54.176;12.070;2022-12-17T03:16:15;6.40;;;4.70;;
50213;SDS011;36103;54.176;12.070;2022-12-17T03:17:35;6.33;;;4.83;;
50213;SDS011;36103;54.176;12.070;2022-12-17T03:18:54;5.87;;;4.13;;
50213;SDS011;36103;54.176;12.070;2022-12-17T03:20:10;4.83;;;4.30;;
50213;SDS011;36103;54.176;12.070;2022-12-17T03:21:29;5.70;;;4.97;;
50213;SDS011;36103;54.176;12.070;2022-12-17T03:22:44;5.17;;;4.60;;
50213;SDS011;36103;54.176;12.070;2022-12-17T03:24:03;5.00;;;4.40;;
50213;SDS011;36103;54.176;12.070;2022-12-17T03:25:23;5.43;;;4.40;;
50213;SDS011;36103;54.176;12.070;2022-12-17T03:26:42;6.23;;;4.70;;
50213;SDS011;36103;54.176;12.070;2022-12-17T03:28:01;5.57;;;4.40;;
50213;SDS011;36103;54.176;12.070;2022-12-17T03:29:21;4.73;;;3.83;;
50213;SDS011;36103;54.176;12.070;2022-12-17T03:30:44;5.50;;;4.40;;
50213;SDS011;36103;54.176;12.070;2022-12-17T03:32:03;4.63;;;4.23;;
50213;SDS011;36103;54.176;12.070;2022-12-17T03:33:22;5.40;;;4.70;;
50213;SDS011;36103;54.176;12.070;2022-12-17T03:34:41;4.57;;;4.10;;
50213;SDS011;36103;54.176;12.070;2022-12-17T03:36:00;5.63;;;4.53;;
50213;SDS011;36103;54.176;12.070;2022-12-17T03:37:18;6.20;;;4.97;;
50213;SDS011;36103;54.176;12.070;2022-12-17T03:38:38;5.53;;;4.33;;
50213;SDS011;36103;54.176;12.070;2022-12-17T03:39:58;6.73;;;5.13;;
50213;SDS011;36103;54.176;12.070;2022-12-17T03:41:16;4.23;;;3.83;;
50213;SDS011;36103;54.176;12.070;2022-12-17T03:42:35;5.30;;;4.57;;
50213;SDS011;36103;54.176;12.070;2022-12-17T03:43:55;4.90;;;3.77;;
50213;SDS011;36103;54.176;12.070;2022-12-17T03:45:14;5.97;;;4.20;;
50213;SDS011;36103;54.176;12.070;2022-12-17T03:46:34;5.13;;;4.60;;
50213;SDS011;36103;54.176;12.070;2022-12-17T03:48:09;4.90;;;4.33;;
50213;SDS011;36103;54.176;12.070;2022-12-17T03:49:29;4.70;;;4.20;;
50213;SDS011;36103;54.176;12.070;2022-12-17T03:50:48;5.40;;;4.27;;
50213;SDS011;36103;54.176;12.070;2022-12-17T03:52:07;5.10;;;4.43;;
50213;SDS011;36103;54.176;12.070;2022-12-17T03:53:26;4.53;;;3.90;;
50213;SDS011;36103;54.176;12.070;2022-12-17T03:54:59;5.40;;;4.47;;
50213;SDS011;36103;54.176;12.070;2022-12-17T03:56:18;6.33;;;4.33;;
50213;SDS011;36103;54.176;12.070;2022-12-17T03:57:37;5.23;;;4.17;;
50213;SDS011;36103;54.176;12.070;2022-12-17T03:58:56;5.77;;;4.47;;
50213;SDS011;36103;54.176;12.070;2022-12-17T04:00:15;4.37;;;3.57;;
50213;SDS011;36103;54.176;12.070;2022-12-17T04:01:36;5.33;;;4.00;;
50213;SDS011;36103;54.176;12.070;2022-12-17T04:02:55;5.17;;;4.50;;
50213;SDS011;36103;54.176;12.070;2022-12-17T04:04:14;5.23;;;4.03;;
50213;SDS011;36103;54.176;12.070;2022-12-17T04:05:33;5.53;;;4.50;;
50213;SDS011;36103;54.176;12.070;2022-12-17T04:06:52;5.57;;;4.30;;
50213;SDS011;36103;54.176;12.070;2022-12-17T04:08:11;4.83;;;3.93;;
50213;SDS011;36103;54.176;12.070;2022-12-17T04:09:30;4.57;;;3.50;;
50213;SDS011;36103;54.176;12.070;2022-12-17T04:10:49;4.40;;;3.90;;
50213;SDS011;36103;54.176;12.070;2022-12-17T04:12:08;4.97;;;4.03;;
50213;SDS011;36103;54.176;12.070;2022-12-17T04:13:27;5.63;;;4.20;;
50213;SDS011;36103;54.176;12.070;2022-12-17T04:14:46;4.53;;;3.80;;
50213;SDS011;36103;54.176;12.070;2022-12-17T04:16:05;5.47;;;4.10;;
50213;SDS011;36103;54.176;12.070;2022-12-17T04:17:25;4.63;;;3.97;;
50213;SDS011;36103;54.176;12.070;2022-12-17T04:18:44;4.57;;;4.00;;
50213;SDS011;36103;54.176;12.070;2022-12-17T04:20:04;4.30;;;3.90;;
50213;SDS011;36103;54.176;12.070;2022-12-17T04:21:39;4.80;;;3.80;;
50213;SDS011;36103;54.176;12.070;2022-12-17T04:22:58;4.50;;;3.87;;
50213;SDS011;36103;54.176;12.070;2022-12-17T04:24:17;4.47;;;4.07;;
50213;SDS011;36103;54.176;12.070;2022-12-17T04:25:32;3.93;;;3.43;;
50213;SDS011;36103;54.176;12.070;2022-12-17T04:26:51;4.97;;;3.97;;
50213;SDS011;36103;54.176;12.070;2022-12-17T04:28:10;4.87;;;4.37;;
50213;SDS011;36103;54.176;12.070;2022-12-17T04:29:29;4.40;;;3.90;;
50213;SDS011;36103;54.176;12.070;2022-12-17T04:30:54;4.40;;;4.00;;
50213;SDS011;36103;54.176;12.070;2022-12-17T04:32:13;4.57;;;3.53;;
50213;SDS011;36103;54.176;12.070;2022-12-17T04:33:35;4.90;;;4.20;;
50213;SDS011;36103;54.176;12.070;2022-12-17T04:34:54;4.10;;;3.70;;
50213;SDS011;36103;54.176;12.070;2022-12-17T04:36:14;4.30;;;3.80;;
50213;SDS011;36103;54.176;12.070;2022-12-17T04:37:34;4.37;;;3.97;;
50213;SDS011;36103;54.176;12.070;2022-12-17T04:38:54;3.93;;;3.60;;
50213;SDS011;36103;54.176;12.070;2022-12-17T04:40:13;4.77;;;4.13;;
50213;SDS011;36103;54.176;12.070;2022-12-17T04:41:34;4.43;;;3.87;;
50213;SDS011;36103;54.176;12.070;2022-12-17T04:42:51;4.60;;;3.67;;
50213;SDS011;36103;54.176;12.070;2022-12-17T04:44:11;4.97;;;3.93;;
50213;SDS011;36103;54.176;12.070;2022-12-17T04:45:30;5.87;;;4.27;;
50213;SDS011;36103;54.176;12.070;2022-12-17T04:46:50;4.33;;;3.60;;
50213;SDS011;36103;54.176;12.070;2022-12-17T04:48:09;3.87;;;3.17;;
50213;SDS011;36103;54.176;12.070;2022-12-17T04:49:29;4.90;;;4.03;;
50213;SDS011;36103;54.176;12.070;2022-12-17T04:50:49;4.67;;;4.10;;
50213;SDS011;36103;54.176;12.070;2022-12-17T04:52:07;4.33;;;3.90;;
50213;SDS011;36103;54.176;12.070;2022-12-17T04:53:32;4.97;;;3.77;;
50213;SDS011;36103;54.176;12.070;2022-12-17T04:54:51;4.33;;;3.73;;
50213;SDS011;36103;54.176;12.070;2022-12-17T04:56:10;5.50;;;4.10;;
50213;SDS011;36103;54.176;12.070;2022-12-17T04:57:25;4.27;;;3.70;;
50213;SDS011;36103;54.176;12.070;2022-12-17T04:58:48;4.30;;;3.90;;
50213;SDS011;36103;54.176;12.070;2022-12-17T05:00:08;4.27;;;3.87;;
50213;SDS011;36103;54.176;12.070;2022-12-17T05:01:28;4.23;;;3.57;;
50213;SDS011;36103;54.176;12.070;2022-12-17T05:02:47;4.43;;;3.60;;
50213;SDS011;36103;54.176;12.070;2022-12-17T05:04:06;4.50;;;3.90;;
50213;SDS011;36103;54.176;12.070;2022-12-17T05:05:26;4.07;;;3.53;;
50213;SDS011;36103;54.176;12.070;2022-12-17T05:06:45;4.20;;;3.80;;
50213;SDS011;36103;54.176;12.070;2022-12-17T05:08:04;4.50;;;3.50;;
50213;SDS011;36103;54.176;12.070;2022-12-17T05:09:28;4.20;;;3.50;;
50213;SDS011;36103;54.176;12.070;2022-12-17T05:10:47;4.30;;;3.90;;
50213;SDS011;36103;54.176;12.070;2022-12-17T05:12:09;4.87;;;3.97;;
50213;SDS011;36103;54.176;12.070;2022-12-17T05:13:28;4.10;;;3.70;;
50213;SDS011;36103;54.176;12.070;2022-12-17T05:14:47;5.03;;;3.97;;
50213;SDS011;36103;54.176;12.070;2022-12-17T05:16:06;4.33;;;3.00;;
50213;SDS011;36103;54.176;12.070;2022-12-17T05:17:25;3.83;;;3.40;;
50213;SDS011;36103;54.176;12.070;2022-12-17T05:18:44;5.30;;;3.77;;
50213;SDS011;36103;54.176;12.070;2022-12-17T05:20:04;3.97;;;3.57;;
50213;SDS011;36103;54.176;12.070;2022-12-17T05:21:24;5.00;;;3.53;;
50213;SDS011;36103;54.176;12.070;2022-12-17T05:22:43;3.50;;;3.20;;
50213;SDS011;36103;54.176;12.070;2022-12-17T05:24:02;3.97;;;3.23;;
50213;SDS011;36103;54.176;12.070;2022-12-17T05:25:21;4.10;;;3.40;;
50213;SDS011;36103;54.176;12.070;2022-12-17T05:26:40;4.10;;;3.37;;
50213;SDS011;36103;54.176;12.070;2022-12-17T05:27:59;4.13;;;3.73;;
50213;SDS011;36103;54.176;12.070;2022-12-17T05:29:18;3.97;;;3.57;;
50213;SDS011;36103;54.176;12.070;2022-12-17T05:30:37;4.27;;;3.20;;
50213;SDS011;36103;54.176;12.070;2022-12-17T05:31:56;3.40;;;3.10;;
50213;SDS011;36103;54.176;12.070;2022-12-17T05:33:15;3.83;;;3.43;;
50213;SDS011;36103;54.176;12.070;2022-12-17T05:34:35;4.33;;;3.50;;
50213;SDS011;36103;54.176;12.070;2022-12-17T05:35:57;3.80;;;3.33;;
50213;SDS011;36103;54.176;12.070;2022-12-17T05:37:18;3.30;;;3.00;;
50213;SDS011;36103;54.176;12.070;2022-12-17T05:38:37;3.53;;;3.23;;
50213;SDS011;36103;54.176;12.070;2022-12-17T05:39:58;3.43;;;3.13;;
50213;SDS011;36103;54.176;12.070;2022-12-17T05:41:22;3.70;;;3.30;;
50213;SDS011;36103;54.176;12.070;2022-12-17T05:42:53;3.57;;;3.27;;
50213;SDS011;36103;54.176;12.070;2022-12-17T05:44:13;3.67;;;3.23;;
50213;SDS011;36103;54.176;12.070;2022-12-17T05:45:32;3.93;;;3.30;;
50213;SDS011;36103;54.176;12.070;2022-12-17T05:46:53;3.83;;;3.10;;
50213;SDS011;36103;54.176;12.070;2022-12-17T05:48:27;3.33;;;2.90;;
50213;SDS011;36103;54.176;12.070;2022-12-17T05:49:46;3.47;;;3.03;;
50213;SDS011;36103;54.176;12.070;2022-12-17T05:51:05;3.70;;;3.30;;
50213;SDS011;36103;54.176;12.070;2022-12-17T05:52:25;3.00;;;2.70;;
50213;SDS011;36103;54.176;12.070;2022-12-17T05:53:44;4.07;;;3.17;;
50213;SDS011;36103;54.176;12.070;2022-12-17T05:55:03;4.03;;;3.30;;
50213;SDS011;36103;54.176;12.070;2022-12-17T05:56:23;3.40;;;3.10;;
50213;SDS011;36103;54.176;12.070;2022-12-17T05:57:42;4.27;;;3.47;;
50213;SDS011;36103;54.176;12.070;2022-12-17T05:59:01;4.40;;;3.20;;
50213;SDS011;36103;54.176;12.070;2022-12-17T06:00:21;3.53;;;3.10;;
50213;SDS011;36103;54.176;12.070;2022-12-17T06:01:39;4.20;;;3.60;;
50213;SDS011;36103;54.176;12.070;2022-12-17T06:02:58;3.70;;;3.30;;
50213;SDS011;36103;54.176;12.070;2022-12-17T06:04:17;3.80;;;3.40;;
50213;SDS011;36103;54.176;12.070;2022-12-17T06:05:36;3.40;;;3.10;;
50213;SDS011;36103;54.176;12.070;2022-12-17T06:06:55;3.50;;;3.20;;
50213;SDS011;36103;54.176;12.070;2022-12-17T06:08:15;3.57;;;2.70;;
50213;SDS011;36103;54.176;12.070;2022-12-17T06:09:34;3.13;;;2.67;;
50213;SDS011;36103;54.176;12.070;2022-12-17T06:10:56;3.20;;;2.90;;
50213;SDS011;36103;54.176;12.070;2022-12-17T06:12:16;3.57;;;3.13;;
50213;SDS011;36103;54.176;12.070;2022-12-17T06:13:35;3.20;;;2.90;;
50213;SDS011;36103;54.176;12.070;2022-12-17T06:14:54;3.67;;;3.10;;
50213;SDS011;36103;54.176;12.070;2022-12-17T06:16:13;3.43;;;3.00;;
50213;SDS011;36103;54.176;12.070;2022-12-17T06:17:32;3.20;;;2.90;;
50213;SDS011;36103;54.176;12.070;2022-12-17T06:18:51;3.37;;;2.87;;
50213;SDS011;36103;54.176;12.070;2022-12-17T06:20:10;3.67;;;3.10;;
50213;SDS011;36103;54.176;12.070;2022-12-17T06:21:29;4.33;;;3.70;;
50213;SDS011;36103;54.176;12.070;2022-12-17T06:22:57;3.50;;;3.20;;
50213;SDS011;36103;54.176;12.070;2022-12-17T06:24:17;3.33;;;3.03;;
50213;SDS011;36103;54.176;12.070;2022-12-17T06:25:42;3.13;;;2.83;;
50213;SDS011;36103;54.176;12.070;2022-12-17T06:27:01;3.10;;;2.80;;
50213;SDS011;36103;54.176;12.070;2022-12-17T06:28:20;3.73;;;2.97;;
50213;SDS011;36103;54.176;12.070;2022-12-17T06:29:39;3.10;;;2.80;;
50213;SDS011;36103;54.176;12.070;2022-12-17T06:30:58;2.90;;;2.70;;
50213;SDS011;36103;54.176;12.070;2022-12-17T06:32:17;3.13;;;2.83;;
50213;SDS011;36103;54.176;12.070;2022-12-17T06:33:37;3.20;;;2.90;;
50213;SDS011;36103;54.176;12.070;2022-12-17T06:34:56;3.13;;;2.83;;
50213;SDS011;36103;54.176;12.070;2022-12-17T06:36:16;3.30;;;3.00;;
50213;SDS011;36103;54.176;12.070;2022-12-17T06:37:35;3.37;;;3.07;;
50213;SDS011;36103;54.176;12.070;2022-12-17T06:38:55;3.43;;;3.10;;
50213;SDS011;36103;54.176;12.070;2022-12-17T06:40:21;3.33;;;3.03;;
50213;SDS011;36103;54.176;12.070;2022-12-17T06:41:41;3.10;;;2.77;;
50213;SDS011;36103;54.176;12.070;2022-12-17T06:43:01;3.10;;;2.80;;
50213;SDS011;36103;54.176;12.070;2022-12-17T06:44:21;3.10;;;2.80;;
50213;SDS011;36103;54.176;12.070;2022-12-17T06:45:40;4.17;;;3.10;;
50213;SDS011;36103;54.176;12.070;2022-12-17T06:46:59;3.00;;;2.70;;
50213;SDS011;36103;54.176;12.070;2022-12-17T06:48:18;2.90;;;2.60;;
50213;SDS011;36103;54.176;12.070;2022-12-17T06:49:52;2.90;;;2.60;;
50213;SDS011;36103;54.176;12.070;2022-12-17T06:51:11;3.47;;;3.17;;
50213;SDS011;36103;54.176;12.070;2022-12-17T06:52:30;3.47;;;2.73;;
50213;SDS011;36103;54.176;12.070;2022-12-17T06:53:48;2.90;;;2.67;;
50213;SDS011;36103;54.176;12.070;2022-12-17T06:55:08;3.17;;;2.80;;
50213;SDS011;36103;54.176;12.070;2022-12-17T06:56:28;3.13;;;2.83;;
50213;SDS011;36103;54.176;12.070;2022-12-17T06:57:47;3.03;;;2.73;;
50213;SDS011;36103;54.176;12.070;2022-12-17T06:59:06;3.10;;;2.80;;
50213;SDS011;36103;54.176;12.070;2022-12-17T07:00:25;3.33;;;3.03;;
50213;SDS011;36103;54.176;12.070;2022-12-17T07:01:44;3.73;;;2.93;;
50213;SDS011;36103;54.176;12.070;2022-12-17T07:03:03;3.43;;;3.03;;
50213;SDS011;36103;54.176;12.070;2022-12-17T07:04:21;3.00;;;2.70;;
50213;SDS011;36103;54.176;12.070;2022-12-17T07:05:46;2.97;;;2.67;;
50213;SDS011;36103;54.176;12.070;2022-12-17T07:07:05;3.47;;;3.17;;
50213;SDS011;36103;54.176;12.070;2022-12-17T07:08:24;2.90;;;2.53;;
50213;SDS011;36103;54.176;12.070;2022-12-17T07:09:43;2.73;;;2.53;;
50213;SDS011;36103;54.176;12.070;2022-12-17T07:11:02;2.80;;;2.57;;
50213;SDS011;36103;54.176;12.070;2022-12-17T07:12:22;2.77;;;2.17;;
50213;SDS011;36103;54.176;12.070;2022-12-17T07:13:41;2.60;;;2.37;;
50213;SDS011;36103;54.176;12.070;2022-12-17T07:15:01;3.00;;;2.70;;
50213;SDS011;36103;54.176;12.070;2022-12-17T07:16:20;3.00;;;2.63;;
50213;SDS011;36103;54.176;12.070;2022-12-17T07:17:40;3.10;;;2.80;;
50213;SDS011;36103;54.176;12.070;2022-12-17T07:18:59;4.83;;;3.23;;
50213;SDS011;36103;54.176;12.070;2022-12-17T07:20:17;3.20;;;2.57;;
50213;SDS011;36103;54.176;12.070;2022-12-17T07:21:36;3.13;;;2.83;;
50213;SDS011;36103;54.176;12.070;2022-12-17T07:22:55;3.07;;;2.77;;
50213;SDS011;36103;54.176;12.070;2022-12-17T07:24:14;2.70;;;2.50;;
50213;SDS011;36103;54.176;12.070;2022-12-17T07:25:33;2.63;;;2.43;;
50213;SDS011;36103;54.176;12.070;2022-12-17T07:26:52;2.60;;;2.33;;
50213;SDS011;36103;54.176;12.070;2022-12-17T07:28:13;3.00;;;2.60;;
50213;SDS011;36103;54.176;12.070;2022-12-17T07:29:32;2.93;;;2.63;;
50213;SDS011;36103;54.176;12.070;2022-12-17T07:30:51;3.40;;;2.57;;
50213;SDS011;36103;54.176;12.070;2022-12-17T07:32:11;3.40;;;2.80;;
50213;SDS011;36103;54.176;12.070;2022-12-17T07:33:29;2.83;;;2.60;;
50213;SDS011;36103;54.176;12.070;2022-12-17T07:34:48;2.73;;;2.53;;
50213;SDS011;36103;54.176;12.070;2022-12-17T07:36:07;3.00;;;2.70;;
50213;SDS011;36103;54.176;12.070;2022-12-17T07:37:26;3.10;;;2.53;;
50213;SDS011;36103;54.176;12.070;2022-12-17T07:38:45;3.23;;;2.93;;
50213;SDS011;36103;54.176;12.070;2022-12-17T07:40:05;2.67;;;2.40;;
50213;SDS011;36103;54.176;12.070;2022-12-17T07:41:25;3.03;;;2.57;;
50213;SDS011;36103;54.176;12.070;2022-12-17T07:42:44;2.80;;;2.60;;
50213;SDS011;36103;54.176;12.070;2022-12-17T07:44:04;3.07;;;2.70;;
50213;SDS011;36103;54.176;12.070;2022-12-17T07:45:24;3.00;;;2.70;;
50213;SDS011;36103;54.176;12.070;2022-12-17T07:46:43;3.20;;;2.70;;
50213;SDS011;36103;54.176;12.070;2022-12-17T07:48:02;3.93;;;2.83;;
50213;SDS011;36103;54.176;12.070;2022-12-17T07:49:21;2.57;;;2.37;;
50213;SDS011;36103;54.176;12.070;2022-12-17T07:50:40;2.77;;;2.57;;
50213;SDS011;36103;54.176;12.070;2022-12-17T07:51:59;3.37;;;2.77;;
50213;SDS011;36103;54.176;12.070;2022-12-17T07:53:18;3.43;;;2.97;;
50213;SDS011;36103;54.176;12.070;2022-12-17T07:54:38;4.17;;;2.73;;
50213;SDS011;36103;54.176;12.070;2022-12-17T07:55:57;2.93;;;2.50;;